sensor_id;sensor_type;location;lat;lon;timestamp;temperature;humidity
12907;DHT22;6521;50.498;8.474;2022-10-31T00:02:14;11.46;87.94
12907;DHT22;6521;50.498;8.474;2022-10-31T00:04:44;11.45;88.20
12907;DHT22;6521;50.498;8.474;2022-10-31T00:07:15;11.45;88.15
12907;DHT22;6521;50.498;8.474;2022-10-31T00:09:46;11.45;88.32
12907;DHT22;6521;50.498;8.474;2022-10-31T00:12:16;11.49;88.38
12907;DHT22;6521;50.498;8.474;2022-10-31T00:14:47;11.49;88.63
12907;DHT22;6521;50.498;8.474;2022-10-31T00:17:18;11.47;88.64
12907;DHT22;6521;50.498;8.474;2022-10-31T00:19:49;11.51;88.48
12907;DHT22;6521;50.498;8.474;2022-10-31T00:22:19;11.49;88.57
12907;DHT22;6521;50.498;8.474;2022-10-31T00:24:50;11.45;88.69
12907;DHT22;6521;50.498;8.474;2022-10-31T00:27:21;11.47;88.64
12907;DHT22;6521;50.498;8.474;2022-10-31T00:29:51;11.40;88.69
12907;DHT22;6521;50.498;8.474;2022-10-31T00:32:22;11.38;88.62
12907;DHT22;6521;50.498;8.474;2022-10-31T00:34:53;11.35;88.52
12907;DHT22;6521;50.498;8.474;2022-10-31T00:37:24;11.29;88.63
12907;DHT22;6521;50.498;8.474;2022-10-31T00:39:55;11.25;88.85
12907;DHT22;6521;50.498;8.474;2022-10-31T00:42:25;11.22;88.89
12907;DHT22;6521;50.498;8.474;2022-10-31T00:44:56;11.21;89.03
12907;DHT22;6521;50.498;8.474;2022-10-31T00:47:28;11.15;89.19
12907;DHT22;6521;50.498;8.474;2022-10-31T00:49:58;11.15;89.24
12907;DHT22;6521;50.498;8.474;2022-10-31T00:52:29;11.14;89.25
12907;DHT22;6521;50.498;8.474;2022-10-31T00:55:01;11.12;89.36
12907;DHT22;6521;50.498;8.474;2022-10-31T00:57:32;11.12;89.47
12907;DHT22;6521;50.498;8.474;2022-10-31T01:00:03;11.14;89.66
12907;DHT22;6521;50.498;8.474;2022-10-31T01:02:34;11.17;89.61
12907;DHT22;6521;50.498;8.474;2022-10-31T01:05:05;11.21;89.34
12907;DHT22;6521;50.498;8.474;2022-10-31T01:07:37;11.21;89.36
12907;DHT22;6521;50.498;8.474;2022-10-31T01:10:09;11.18;89.26
12907;DHT22;6521;50.498;8.474;2022-10-31T01:12:45;11.17;89.11
12907;DHT22;6521;50.498;8.474;2022-10-31T01:15:20;11.14;89.26
12907;DHT22;6521;50.498;8.474;2022-10-31T01:17:51;11.17;89.42
12907;DHT22;6521;50.498;8.474;2022-10-31T01:20:22;11.17;89.47
12907;DHT22;6521;50.498;8.474;2022-10-31T01:22:53;11.19;89.51
12907;DHT22;6521;50.498;8.474;2022-10-31T01:25:24;11.21;89.56
12907;DHT22;6521;50.498;8.474;2022-10-31T01:27:55;11.22;89.46
12907;DHT22;6521;50.498;8.474;2022-10-31T01:30:25;11.24;89.38
12907;DHT22;6521;50.498;8.474;2022-10-31T01:32:56;11.19;89.26
12907;DHT22;6521;50.498;8.474;2022-10-31T01:35:28;11.18;89.21
12907;DHT22;6521;50.498;8.474;2022-10-31T01:37:58;11.14;89.30
12907;DHT22;6521;50.498;8.474;2022-10-31T01:40:29;11.14;89.30
12907;DHT22;6521;50.498;8.474;2022-10-31T01:43:00;11.10;89.24
12907;DHT22;6521;50.498;8.474;2022-10-31T01:45:31;11.14;89.17
12907;DHT22;6521;50.498;8.474;2022-10-31T01:48:02;11.08;89.12
12907;DHT22;6521;50.498;8.474;2022-10-31T01:50:37;11.07;89.34
12907;DHT22;6521;50.498;8.474;2022-10-31T01:53:10;11.05;89.22
12907;DHT22;6521;50.498;8.474;2022-10-31T01:55:44;11.05;89.33
12907;DHT22;6521;50.498;8.474;2022-10-31T01:58:21;11.08;89.55
12907;DHT22;6521;50.498;8.474;2022-10-31T02:00:56;11.10;89.46
12907;DHT22;6521;50.498;8.474;2022-10-31T02:03:28;11.11;89.47
12907;DHT22;6521;50.498;8.474;2022-10-31T02:06:03;11.08;89.50
12907;DHT22;6521;50.498;8.474;2022-10-31T02:08:37;11.08;89.43
12907;DHT22;6521;50.498;8.474;2022-10-31T02:11:10;11.08;89.46
12907;DHT22;6521;50.498;8.474;2022-10-31T02:13:41;11.10;89.45
12907;DHT22;6521;50.498;8.474;2022-10-31T02:16:13;11.01;89.50
12907;DHT22;6521;50.498;8.474;2022-10-31T02:18:43;10.98;89.92
12907;DHT22;6521;50.498;8.474;2022-10-31T02:21:25;11.00;89.87
12907;DHT22;6521;50.498;8.474;2022-10-31T02:27:11;10.97;89.68
12907;DHT22;6521;50.498;8.474;2022-10-31T02:30:11;10.97;89.64
12907;DHT22;6521;50.498;8.474;2022-10-31T02:33:04;10.91;90.09
12907;DHT22;6521;50.498;8.474;2022-10-31T02:38:34;10.91;90.04
12907;DHT22;6521;50.498;8.474;2022-10-31T02:41:37;10.91;90.28
12907;DHT22;6521;50.498;8.474;2022-10-31T02:46:54;10.93;90.42
12907;DHT22;6521;50.498;8.474;2022-10-31T02:49:33;10.94;90.40
12907;DHT22;6521;50.498;8.474;2022-10-31T02:52:25;10.93;90.30
12907;DHT22;6521;50.498;8.474;2022-10-31T02:54:56;10.90;90.10
12907;DHT22;6521;50.498;8.474;2022-10-31T02:57:29;10.87;89.91
12907;DHT22;6521;50.498;8.474;2022-10-31T03:00:04;10.80;89.99
12907;DHT22;6521;50.498;8.474;2022-10-31T03:08:09;10.70;90.13
12907;DHT22;6521;50.498;8.474;2022-10-31T03:10:47;10.67;90.14
12907;DHT22;6521;50.498;8.474;2022-10-31T03:16:14;10.61;90.33
12907;DHT22;6521;50.498;8.474;2022-10-31T03:21:48;10.56;90.37
12907;DHT22;6521;50.498;8.474;2022-10-31T03:24:22;10.50;90.15
12907;DHT22;6521;50.498;8.474;2022-10-31T03:26:56;10.47;90.36
12907;DHT22;6521;50.498;8.474;2022-10-31T03:29:32;10.50;90.25
12907;DHT22;6521;50.498;8.474;2022-10-31T03:32:22;10.49;90.68
12907;DHT22;6521;50.498;8.474;2022-10-31T03:34:57;10.50;90.66
12907;DHT22;6521;50.498;8.474;2022-10-31T03:37:31;10.45;90.60
12907;DHT22;6521;50.498;8.474;2022-10-31T03:40:05;10.45;90.51
12907;DHT22;6521;50.498;8.474;2022-10-31T03:42:41;10.46;90.20
12907;DHT22;6521;50.498;8.474;2022-10-31T03:45:21;10.38;90.25
12907;DHT22;6521;50.498;8.474;2022-10-31T03:47:54;10.35;90.45
12907;DHT22;6521;50.498;8.474;2022-10-31T03:50:32;10.36;90.79
12907;DHT22;6521;50.498;8.474;2022-10-31T03:53:14;10.38;90.83
12907;DHT22;6521;50.498;8.474;2022-10-31T03:55:50;10.36;90.96
12907;DHT22;6521;50.498;8.474;2022-10-31T03:58:36;10.39;90.94
12907;DHT22;6521;50.498;8.474;2022-10-31T04:01:12;10.36;91.02
12907;DHT22;6521;50.498;8.474;2022-10-31T04:03:46;10.40;91.18
12907;DHT22;6521;50.498;8.474;2022-10-31T04:06:18;10.39;90.90
12907;DHT22;6521;50.498;8.474;2022-10-31T04:08:54;10.38;91.01
12907;DHT22;6521;50.498;8.474;2022-10-31T04:11:30;10.36;91.24
12907;DHT22;6521;50.498;8.474;2022-10-31T04:14:42;10.35;91.25
12907;DHT22;6521;50.498;8.474;2022-10-31T04:17:17;10.35;91.36
12907;DHT22;6521;50.498;8.474;2022-10-31T04:19:49;10.32;91.50
12907;DHT22;6521;50.498;8.474;2022-10-31T04:22:20;10.33;91.51
12907;DHT22;6521;50.498;8.474;2022-10-31T04:24:51;10.32;91.48
12907;DHT22;6521;50.498;8.474;2022-10-31T04:27:22;10.30;91.44
12907;DHT22;6521;50.498;8.474;2022-10-31T04:29:53;10.26;91.54
12907;DHT22;6521;50.498;8.474;2022-10-31T04:32:24;10.26;91.64
12907;DHT22;6521;50.498;8.474;2022-10-31T04:34:56;10.29;91.59
12907;DHT22;6521;50.498;8.474;2022-10-31T04:37:27;10.26;91.55
12907;DHT22;6521;50.498;8.474;2022-10-31T04:39:58;10.28;91.65
12907;DHT22;6521;50.498;8.474;2022-10-31T04:42:57;10.25;91.47
12907;DHT22;6521;50.498;8.474;2022-10-31T04:45:28;10.23;91.53
12907;DHT22;6521;50.498;8.474;2022-10-31T04:48:00;10.22;91.50
12907;DHT22;6521;50.498;8.474;2022-10-31T04:50:30;10.18;91.35
12907;DHT22;6521;50.498;8.474;2022-10-31T04:53:01;10.15;91.22
12907;DHT22;6521;50.498;8.474;2022-10-31T04:55:37;10.05;91.07
12907;DHT22;6521;50.498;8.474;2022-10-31T04:58:22;10.03;91.22
12907;DHT22;6521;50.498;8.474;2022-10-31T05:00:54;10.01;91.30
12907;DHT22;6521;50.498;8.474;2022-10-31T05:03:25;10.05;91.37
12907;DHT22;6521;50.498;8.474;2022-10-31T05:05:56;10.01;91.28
12907;DHT22;6521;50.498;8.474;2022-10-31T05:08:27;9.94;91.28
12907;DHT22;6521;50.498;8.474;2022-10-31T05:11:00;9.92;91.56
12907;DHT22;6521;50.498;8.474;2022-10-31T05:13:32;9.91;91.66
12907;DHT22;6521;50.498;8.474;2022-10-31T05:16:18;9.94;91.63
12907;DHT22;6521;50.498;8.474;2022-10-31T05:19:08;9.91;91.34
12907;DHT22;6521;50.498;8.474;2022-10-31T05:22:07;9.87;91.27
12907;DHT22;6521;50.498;8.474;2022-10-31T05:24:39;9.85;91.48
12907;DHT22;6521;50.498;8.474;2022-10-31T05:27:14;9.80;91.39
12907;DHT22;6521;50.498;8.474;2022-10-31T05:29:46;9.78;91.46
12907;DHT22;6521;50.498;8.474;2022-10-31T05:32:18;9.80;91.53
12907;DHT22;6521;50.498;8.474;2022-10-31T05:35:31;9.77;91.74
12907;DHT22;6521;50.498;8.474;2022-10-31T05:38:32;9.80;91.75
12907;DHT22;6521;50.498;8.474;2022-10-31T05:41:09;9.78;91.73
12907;DHT22;6521;50.498;8.474;2022-10-31T05:43:40;9.80;91.69
12907;DHT22;6521;50.498;8.474;2022-10-31T05:46:11;9.81;91.51
12907;DHT22;6521;50.498;8.474;2022-10-31T05:49:01;9.78;91.51
12907;DHT22;6521;50.498;8.474;2022-10-31T05:51:50;9.74;91.61
12907;DHT22;6521;50.498;8.474;2022-10-31T05:54:22;9.74;91.44
12907;DHT22;6521;50.498;8.474;2022-10-31T05:56:52;9.70;91.31
12907;DHT22;6521;50.498;8.474;2022-10-31T05:59:24;9.67;91.32
12907;DHT22;6521;50.498;8.474;2022-10-31T06:01:55;9.62;91.38
12907;DHT22;6521;50.498;8.474;2022-10-31T06:04:45;9.61;91.42
12907;DHT22;6521;50.498;8.474;2022-10-31T06:07:16;9.54;91.42
12907;DHT22;6521;50.498;8.474;2022-10-31T06:09:47;9.57;91.64
12907;DHT22;6521;50.498;8.474;2022-10-31T06:12:19;9.54;91.77
12907;DHT22;6521;50.498;8.474;2022-10-31T06:15:08;9.51;91.69
12907;DHT22;6521;50.498;8.474;2022-10-31T06:17:39;9.55;91.81
12907;DHT22;6521;50.498;8.474;2022-10-31T06:20:27;9.54;91.88
12907;DHT22;6521;50.498;8.474;2022-10-31T06:23:06;9.57;91.87
12907;DHT22;6521;50.498;8.474;2022-10-31T06:25:38;9.57;91.86
12907;DHT22;6521;50.498;8.474;2022-10-31T06:28:09;9.58;91.78
12907;DHT22;6521;50.498;8.474;2022-10-31T06:30:51;9.61;91.98
12907;DHT22;6521;50.498;8.474;2022-10-31T06:33:22;9.61;91.92
12907;DHT22;6521;50.498;8.474;2022-10-31T06:36:05;9.61;91.99
12907;DHT22;6521;50.498;8.474;2022-10-31T06:38:36;9.65;92.26
12907;DHT22;6521;50.498;8.474;2022-10-31T06:41:10;9.73;92.44
12907;DHT22;6521;50.498;8.474;2022-10-31T06:43:47;9.78;92.56
12907;DHT22;6521;50.498;8.474;2022-10-31T06:46:34;9.82;92.62
12907;DHT22;6521;50.498;8.474;2022-10-31T06:49:17;9.92;92.81
12907;DHT22;6521;50.498;8.474;2022-10-31T06:51:55;9.98;92.85
12907;DHT22;6521;50.498;8.474;2022-10-31T06:54:26;10.03;92.86
12907;DHT22;6521;50.498;8.474;2022-10-31T06:56:58;10.10;92.86
12907;DHT22;6521;50.498;8.474;2022-10-31T06:59:29;10.10;92.79
12907;DHT22;6521;50.498;8.474;2022-10-31T07:02:21;10.18;92.58
12907;DHT22;6521;50.498;8.474;2022-10-31T07:04:54;10.23;92.54
12907;DHT22;6521;50.498;8.474;2022-10-31T07:07:25;10.25;92.52
12907;DHT22;6521;50.498;8.474;2022-10-31T07:09:56;10.33;92.54
12907;DHT22;6521;50.498;8.474;2022-10-31T07:12:42;10.38;92.83
12907;DHT22;6521;50.498;8.474;2022-10-31T07:15:13;10.46;93.14
12907;DHT22;6521;50.498;8.474;2022-10-31T07:17:44;10.57;93.39
12907;DHT22;6521;50.498;8.474;2022-10-31T07:20:15;10.66;93.42
12907;DHT22;6521;50.498;8.474;2022-10-31T07:22:46;10.77;93.58
12907;DHT22;6521;50.498;8.474;2022-10-31T07:25:17;10.80;93.65
12907;DHT22;6521;50.498;8.474;2022-10-31T07:28:07;10.91;93.66
12907;DHT22;6521;50.498;8.474;2022-10-31T07:30:39;10.97;93.60
12907;DHT22;6521;50.498;8.474;2022-10-31T07:33:10;11.04;93.59
12907;DHT22;6521;50.498;8.474;2022-10-31T07:36:12;11.11;93.58
12907;DHT22;6521;50.498;8.474;2022-10-31T07:38:46;11.17;93.42
12907;DHT22;6521;50.498;8.474;2022-10-31T07:41:18;11.18;93.31
12907;DHT22;6521;50.498;8.474;2022-10-31T07:43:50;11.22;93.29
12907;DHT22;6521;50.498;8.474;2022-10-31T07:46:22;11.26;92.96
12907;DHT22;6521;50.498;8.474;2022-10-31T07:49:12;11.26;93.08
12907;DHT22;6521;50.498;8.474;2022-10-31T07:52:21;11.38;93.15
12907;DHT22;6521;50.498;8.474;2022-10-31T07:55:18;11.45;93.10
12907;DHT22;6521;50.498;8.474;2022-10-31T07:57:59;11.56;92.94
12907;DHT22;6521;50.498;8.474;2022-10-31T08:00:33;11.59;92.55
12907;DHT22;6521;50.498;8.474;2022-10-31T08:03:18;11.66;92.69
12907;DHT22;6521;50.498;8.474;2022-10-31T08:06:08;11.75;92.60
12907;DHT22;6521;50.498;8.474;2022-10-31T08:08:58;11.77;92.29
12907;DHT22;6521;50.498;8.474;2022-10-31T08:11:29;11.79;92.30
12907;DHT22;6521;50.498;8.474;2022-10-31T08:14:00;11.86;92.27
12907;DHT22;6521;50.498;8.474;2022-10-31T08:16:30;11.91;92.25
12907;DHT22;6521;50.498;8.474;2022-10-31T08:19:05;11.96;91.96
12907;DHT22;6521;50.498;8.474;2022-10-31T08:21:41;11.89;91.25
12907;DHT22;6521;50.498;8.474;2022-10-31T08:24:13;11.83;91.27
12907;DHT22;6521;50.498;8.474;2022-10-31T08:26:44;11.87;91.78
12907;DHT22;6521;50.498;8.474;2022-10-31T08:29:16;11.98;92.09
12907;DHT22;6521;50.498;8.474;2022-10-31T08:31:47;12.10;92.03
12907;DHT22;6521;50.498;8.474;2022-10-31T08:34:36;12.16;91.75
12907;DHT22;6521;50.498;8.474;2022-10-31T08:37:26;12.24;91.88
12907;DHT22;6521;50.498;8.474;2022-10-31T08:39:59;12.31;91.77
12907;DHT22;6521;50.498;8.474;2022-10-31T08:42:30;12.37;91.47
12907;DHT22;6521;50.498;8.474;2022-10-31T08:45:00;12.41;91.36
12907;DHT22;6521;50.498;8.474;2022-10-31T08:47:32;12.49;91.46
12907;DHT22;6521;50.498;8.474;2022-10-31T08:50:03;12.59;91.35
12907;DHT22;6521;50.498;8.474;2022-10-31T08:52:33;12.69;91.29
12907;DHT22;6521;50.498;8.474;2022-10-31T08:55:07;12.69;90.82
12907;DHT22;6521;50.498;8.474;2022-10-31T08:57:57;12.78;90.89
12907;DHT22;6521;50.498;8.474;2022-10-31T09:00:28;12.78;90.40
12907;DHT22;6521;50.498;8.474;2022-10-31T09:03:11;12.83;90.66
12907;DHT22;6521;50.498;8.474;2022-10-31T09:05:42;12.92;90.81
12907;DHT22;6521;50.498;8.474;2022-10-31T09:08:16;12.99;90.51
12907;DHT22;6521;50.498;8.474;2022-10-31T09:10:47;13.03;90.49
12907;DHT22;6521;50.498;8.474;2022-10-31T09:13:23;13.10;90.26
12907;DHT22;6521;50.498;8.474;2022-10-31T09:16:26;13.16;90.37
12907;DHT22;6521;50.498;8.474;2022-10-31T09:18:58;13.24;90.50
12907;DHT22;6521;50.498;8.474;2022-10-31T09:21:29;13.33;90.55
12907;DHT22;6521;50.498;8.474;2022-10-31T09:24:03;13.41;90.35
12907;DHT22;6521;50.498;8.474;2022-10-31T09:26:34;13.50;90.50
12907;DHT22;6521;50.498;8.474;2022-10-31T09:29:27;13.62;90.41
12907;DHT22;6521;50.498;8.474;2022-10-31T09:32:02;13.79;90.50
12907;DHT22;6521;50.498;8.474;2022-10-31T09:34:34;13.98;89.99
12907;DHT22;6521;50.498;8.474;2022-10-31T09:37:10;14.13;89.51
12907;DHT22;6521;50.498;8.474;2022-10-31T09:39:41;14.32;89.36
12907;DHT22;6521;50.498;8.474;2022-10-31T09:42:34;14.60;89.18
12907;DHT22;6521;50.498;8.474;2022-10-31T09:51:25;15.74;86.45
12907;DHT22;6521;50.498;8.474;2022-10-31T09:54:12;16.07;85.01
12907;DHT22;6521;50.498;8.474;2022-10-31T09:56:44;16.28;84.29
12907;DHT22;6521;50.498;8.474;2022-10-31T09:59:25;16.52;83.09
12907;DHT22;6521;50.498;8.474;2022-10-31T10:02:05;16.75;81.37
12907;DHT22;6521;50.498;8.474;2022-10-31T10:04:51;16.96;81.36
12907;DHT22;6521;50.498;8.474;2022-10-31T10:10:32;17.31;79.48
12907;DHT22;6521;50.498;8.474;2022-10-31T10:19:38;17.74;77.34
12907;DHT22;6521;50.498;8.474;2022-10-31T10:22:38;17.89;76.38
12907;DHT22;6521;50.498;8.474;2022-10-31T10:25:37;17.98;76.37
12907;DHT22;6521;50.498;8.474;2022-10-31T10:28:29;17.99;74.89
12907;DHT22;6521;50.498;8.474;2022-10-31T10:31:20;18.12;75.21
12907;DHT22;6521;50.498;8.474;2022-10-31T10:36:41;18.23;74.09
12907;DHT22;6521;50.498;8.474;2022-10-31T10:39:21;18.16;74.02
12907;DHT22;6521;50.498;8.474;2022-10-31T10:41:54;18.09;73.09
12907;DHT22;6521;50.498;8.474;2022-10-31T10:44:47;18.08;73.44
12907;DHT22;6521;50.498;8.474;2022-10-31T10:47:41;18.10;73.87
12907;DHT22;6521;50.498;8.474;2022-10-31T10:50:20;18.16;73.54
12907;DHT22;6521;50.498;8.474;2022-10-31T10:58:35;18.32;72.46
12907;DHT22;6521;50.498;8.474;2022-10-31T11:01:15;18.29;72.02
12907;DHT22;6521;50.498;8.474;2022-10-31T11:03:46;18.19;72.38
12907;DHT22;6521;50.498;8.474;2022-10-31T11:06:18;18.19;72.74
12907;DHT22;6521;50.498;8.474;2022-10-31T11:08:52;18.19;72.51
12907;DHT22;6521;50.498;8.474;2022-10-31T11:11:26;18.10;71.88
12907;DHT22;6521;50.498;8.474;2022-10-31T11:14:12;18.01;72.38
12907;DHT22;6521;50.498;8.474;2022-10-31T11:16:47;17.93;72.86
12907;DHT22;6521;50.498;8.474;2022-10-31T11:19:23;17.89;73.12
12907;DHT22;6521;50.498;8.474;2022-10-31T11:22:06;17.93;73.12
12907;DHT22;6521;50.498;8.474;2022-10-31T11:24:40;17.88;73.28
12907;DHT22;6521;50.498;8.474;2022-10-31T11:27:22;17.88;73.14
12907;DHT22;6521;50.498;8.474;2022-10-31T11:30:04;17.84;73.49
12907;DHT22;6521;50.498;8.474;2022-10-31T11:32:35;17.95;73.72
12907;DHT22;6521;50.498;8.474;2022-10-31T11:35:10;18.06;73.58
12907;DHT22;6521;50.498;8.474;2022-10-31T11:37:44;18.05;72.99
12907;DHT22;6521;50.498;8.474;2022-10-31T11:40:21;18.02;72.80
12907;DHT22;6521;50.498;8.474;2022-10-31T11:42:55;18.05;72.70
12907;DHT22;6521;50.498;8.474;2022-10-31T11:45:32;17.96;73.12
12907;DHT22;6521;50.498;8.474;2022-10-31T11:48:16;17.95;73.36
12907;DHT22;6521;50.498;8.474;2022-10-31T11:50:50;17.98;73.33
12907;DHT22;6521;50.498;8.474;2022-10-31T11:53:33;17.96;73.21
12907;DHT22;6521;50.498;8.474;2022-10-31T11:56:12;17.91;73.23
12907;DHT22;6521;50.498;8.474;2022-10-31T11:58:55;17.89;73.13
12907;DHT22;6521;50.498;8.474;2022-10-31T12:01:29;17.92;73.15
12907;DHT22;6521;50.498;8.474;2022-10-31T12:04:06;17.93;73.02
12907;DHT22;6521;50.498;8.474;2022-10-31T12:06:40;17.95;73.02
12907;DHT22;6521;50.498;8.474;2022-10-31T12:09:27;17.89;73.40
12907;DHT22;6521;50.498;8.474;2022-10-31T12:17:58;17.74;73.62
12907;DHT22;6521;50.498;8.474;2022-10-31T12:21:10;17.70;73.95
12907;DHT22;6521;50.498;8.474;2022-10-31T12:23:58;17.55;74.55
12907;DHT22;6521;50.498;8.474;2022-10-31T12:26:47;17.58;74.40
12907;DHT22;6521;50.498;8.474;2022-10-31T12:32:05;17.54;74.25
12907;DHT22;6521;50.498;8.474;2022-10-31T12:43:34;17.65;74.35
12907;DHT22;6521;50.498;8.474;2022-10-31T12:46:37;17.75;74.29
12907;DHT22;6521;50.498;8.474;2022-10-31T12:57:35;17.92;73.99
12907;DHT22;6521;50.498;8.474;2022-10-31T13:00:18;17.88;73.86
12907;DHT22;6521;50.498;8.474;2022-10-31T13:05:36;17.82;74.16
12907;DHT22;6521;50.498;8.474;2022-10-31T13:08:12;17.84;74.09
12907;DHT22;6521;50.498;8.474;2022-10-31T13:11:03;17.95;74.20
12907;DHT22;6521;50.498;8.474;2022-10-31T13:13:44;18.16;73.72
12907;DHT22;6521;50.498;8.474;2022-10-31T13:16:20;18.34;73.59
12907;DHT22;6521;50.498;8.474;2022-10-31T13:19:13;18.63;72.85
12907;DHT22;6521;50.498;8.474;2022-10-31T13:24:34;19.14;71.00
12907;DHT22;6521;50.498;8.474;2022-10-31T13:27:14;19.11;70.53
12907;DHT22;6521;50.498;8.474;2022-10-31T13:30:02;19.07;71.09
12907;DHT22;6521;50.498;8.474;2022-10-31T13:32:52;18.84;71.48
12907;DHT22;6521;50.498;8.474;2022-10-31T13:35:43;18.75;71.09
12907;DHT22;6521;50.498;8.474;2022-10-31T13:38:22;18.59;71.83
12907;DHT22;6521;50.498;8.474;2022-10-31T13:46:42;18.85;71.53
12907;DHT22;6521;50.498;8.474;2022-10-31T13:49:39;18.84;71.30
12907;DHT22;6521;50.498;8.474;2022-10-31T13:54:43;18.53;72.34
12907;DHT22;6521;50.498;8.474;2022-10-31T13:57:30;18.34;73.30
12907;DHT22;6521;50.498;8.474;2022-10-31T14:00:22;18.14;73.67
12907;DHT22;6521;50.498;8.474;2022-10-31T14:02:56;17.96;74.31
12907;DHT22;6521;50.498;8.474;2022-10-31T14:05:31;17.81;74.77
12907;DHT22;6521;50.498;8.474;2022-10-31T14:08:04;17.72;75.27
12907;DHT22;6521;50.498;8.474;2022-10-31T14:10:38;17.62;75.82
12907;DHT22;6521;50.498;8.474;2022-10-31T14:13:29;17.48;76.26
12907;DHT22;6521;50.498;8.474;2022-10-31T14:16:05;17.37;76.29
12907;DHT22;6521;50.498;8.474;2022-10-31T14:18:38;17.28;76.61
12907;DHT22;6521;50.498;8.474;2022-10-31T14:23:56;17.14;77.55
12907;DHT22;6521;50.498;8.474;2022-10-31T14:26:33;17.09;77.60
12907;DHT22;6521;50.498;8.474;2022-10-31T14:31:51;16.97;78.07
12907;DHT22;6521;50.498;8.474;2022-10-31T14:34:27;16.87;78.22
12907;DHT22;6521;50.498;8.474;2022-10-31T14:37:24;16.79;78.44
12907;DHT22;6521;50.498;8.474;2022-10-31T14:40:12;16.69;78.77
12907;DHT22;6521;50.498;8.474;2022-10-31T14:43:09;16.58;79.17
12907;DHT22;6521;50.498;8.474;2022-10-31T14:51:24;16.37;80.34
12907;DHT22;6521;50.498;8.474;2022-10-31T14:53:56;16.32;80.68
12907;DHT22;6521;50.498;8.474;2022-10-31T14:56:33;16.31;81.13
12907;DHT22;6521;50.498;8.474;2022-10-31T14:59:12;16.29;81.04
12907;DHT22;6521;50.498;8.474;2022-10-31T15:02:12;16.32;80.83
12907;DHT22;6521;50.498;8.474;2022-10-31T15:04:44;16.34;80.99
12907;DHT22;6521;50.498;8.474;2022-10-31T15:07:20;16.31;81.24
12907;DHT22;6521;50.498;8.474;2022-10-31T15:09:56;16.35;81.47
12907;DHT22;6521;50.498;8.474;2022-10-31T15:15:20;16.42;81.17
12907;DHT22;6521;50.498;8.474;2022-10-31T15:17:56;16.45;81.05
12907;DHT22;6521;50.498;8.474;2022-10-31T15:20:30;16.44;81.12
12907;DHT22;6521;50.498;8.474;2022-10-31T15:23:03;16.44;81.09
12907;DHT22;6521;50.498;8.474;2022-10-31T15:25:34;16.42;81.15
12907;DHT22;6521;50.498;8.474;2022-10-31T15:28:21;16.42;81.32
12907;DHT22;6521;50.498;8.474;2022-10-31T15:31:00;16.41;81.52
12907;DHT22;6521;50.498;8.474;2022-10-31T15:33:39;16.38;81.58
12907;DHT22;6521;50.498;8.474;2022-10-31T15:36:22;16.35;81.66
12907;DHT22;6521;50.498;8.474;2022-10-31T15:38:55;16.31;81.69
12907;DHT22;6521;50.498;8.474;2022-10-31T15:44:06;16.21;81.71
12907;DHT22;6521;50.498;8.474;2022-10-31T15:46:41;16.17;81.71
12907;DHT22;6521;50.498;8.474;2022-10-31T15:49:30;16.08;81.85
12907;DHT22;6521;50.498;8.474;2022-10-31T15:52:06;16.04;81.75
12907;DHT22;6521;50.498;8.474;2022-10-31T15:54:48;15.94;81.87
12907;DHT22;6521;50.498;8.474;2022-10-31T15:57:22;15.79;82.33
12907;DHT22;6521;50.498;8.474;2022-10-31T15:59:54;15.66;82.65
12907;DHT22;6521;50.498;8.474;2022-10-31T16:02:26;15.57;82.91
12907;DHT22;6521;50.498;8.474;2022-10-31T16:05:00;15.50;83.11
12907;DHT22;6521;50.498;8.474;2022-10-31T16:07:32;15.40;83.38
12907;DHT22;6521;50.498;8.474;2022-10-31T16:10:03;15.34;83.68
12907;DHT22;6521;50.498;8.474;2022-10-31T16:12:36;15.27;83.86
12907;DHT22;6521;50.498;8.474;2022-10-31T16:15:14;15.22;84.15
12907;DHT22;6521;50.498;8.474;2022-10-31T16:17:47;15.22;84.19
12907;DHT22;6521;50.498;8.474;2022-10-31T16:20:23;15.15;84.20
12907;DHT22;6521;50.498;8.474;2022-10-31T16:22:56;15.11;84.70
12907;DHT22;6521;50.498;8.474;2022-10-31T16:25:36;15.07;85.17
12907;DHT22;6521;50.498;8.474;2022-10-31T16:28:18;15.02;85.41
12907;DHT22;6521;50.498;8.474;2022-10-31T16:30:51;15.01;85.38
12907;DHT22;6521;50.498;8.474;2022-10-31T16:33:31;14.98;85.53
12907;DHT22;6521;50.498;8.474;2022-10-31T16:36:29;14.98;85.43
12907;DHT22;6521;50.498;8.474;2022-10-31T16:39:01;14.99;85.57
12907;DHT22;6521;50.498;8.474;2022-10-31T16:41:36;14.99;85.43
12907;DHT22;6521;50.498;8.474;2022-10-31T16:44:26;14.99;85.45
12907;DHT22;6521;50.498;8.474;2022-10-31T16:49:37;14.99;85.29
12907;DHT22;6521;50.498;8.474;2022-10-31T16:52:08;14.95;85.13
12907;DHT22;6521;50.498;8.474;2022-10-31T16:54:39;14.90;85.20
12907;DHT22;6521;50.498;8.474;2022-10-31T16:57:19;14.88;85.23
12907;DHT22;6521;50.498;8.474;2022-10-31T16:59:52;14.87;85.32
12907;DHT22;6521;50.498;8.474;2022-10-31T17:02:26;14.85;85.35
12907;DHT22;6521;50.498;8.474;2022-10-31T17:04:56;14.85;85.41
12907;DHT22;6521;50.498;8.474;2022-10-31T17:07:27;14.83;85.47
12907;DHT22;6521;50.498;8.474;2022-10-31T17:09:58;14.78;85.60
12907;DHT22;6521;50.498;8.474;2022-10-31T17:12:29;14.76;85.73
12907;DHT22;6521;50.498;8.474;2022-10-31T17:15:00;14.73;85.77
12907;DHT22;6521;50.498;8.474;2022-10-31T17:17:31;14.63;85.81
12907;DHT22;6521;50.498;8.474;2022-10-31T17:20:15;14.60;85.79
12907;DHT22;6521;50.498;8.474;2022-10-31T17:22:47;14.51;85.87
12907;DHT22;6521;50.498;8.474;2022-10-31T17:25:23;14.46;86.34
12907;DHT22;6521;50.498;8.474;2022-10-31T17:27:54;14.49;86.64
12907;DHT22;6521;50.498;8.474;2022-10-31T17:30:25;14.43;86.63
12907;DHT22;6521;50.498;8.474;2022-10-31T17:32:56;14.43;86.63
12907;DHT22;6521;50.498;8.474;2022-10-31T17:35:26;14.40;86.55
12907;DHT22;6521;50.498;8.474;2022-10-31T17:37:57;14.33;86.56
12907;DHT22;6521;50.498;8.474;2022-10-31T17:40:28;14.28;86.75
12907;DHT22;6521;50.498;8.474;2022-10-31T17:42:58;14.23;86.80
12907;DHT22;6521;50.498;8.474;2022-10-31T17:45:30;14.16;86.65
12907;DHT22;6521;50.498;8.474;2022-10-31T17:48:01;14.11;86.66
12907;DHT22;6521;50.498;8.474;2022-10-31T17:50:31;14.02;86.91
12907;DHT22;6521;50.498;8.474;2022-10-31T17:53:02;13.98;86.96
12907;DHT22;6521;50.498;8.474;2022-10-31T17:55:33;13.91;87.06
12907;DHT22;6521;50.498;8.474;2022-10-31T17:58:04;13.81;87.62
12907;DHT22;6521;50.498;8.474;2022-10-31T18:00:35;13.77;88.88
12907;DHT22;6521;50.498;8.474;2022-10-31T18:03:06;13.75;89.08
12907;DHT22;6521;50.498;8.474;2022-10-31T18:05:37;13.74;88.80
12907;DHT22;6521;50.498;8.474;2022-10-31T18:08:07;13.70;88.60
12907;DHT22;6521;50.498;8.474;2022-10-31T18:10:38;13.62;88.68
12907;DHT22;6521;50.498;8.474;2022-10-31T18:13:09;13.60;88.52
12907;DHT22;6521;50.498;8.474;2022-10-31T18:15:39;13.53;88.61
12907;DHT22;6521;50.498;8.474;2022-10-31T18:18:10;13.50;88.49
12907;DHT22;6521;50.498;8.474;2022-10-31T18:20:41;13.41;88.47
12907;DHT22;6521;50.498;8.474;2022-10-31T18:23:12;13.39;88.55
12907;DHT22;6521;50.498;8.474;2022-10-31T18:25:42;13.36;88.81
12907;DHT22;6521;50.498;8.474;2022-10-31T18:28:13;13.34;89.05
12907;DHT22;6521;50.498;8.474;2022-10-31T18:30:44;13.34;89.44
12907;DHT22;6521;50.498;8.474;2022-10-31T18:33:15;13.37;89.32